sensor_id;sensor_type;location;lat;lon;timestamp;temperature;humidity
25839;DHT22;13669;50.186;27.062;2022-07-30T00:01:33;18.20;99.90
25839;DHT22;13669;50.186;27.062;2022-07-30T00:04:02;18.20;99.90
25839;DHT22;13669;50.186;27.062;2022-07-30T00:06:30;18.10;99.90
25839;DHT22;13669;50.186;27.062;2022-07-30T00:08:58;18.00;99.90
25839;DHT22;13669;50.186;27.062;2022-07-30T00:11:26;18.00;99.90
25839;DHT22;13669;50.186;27.062;2022-07-30T00:13:54;18.00;99.90
25839;DHT22;13669;50.186;27.062;2022-07-30T00:16:22;17.90;99.90
25839;DHT22;13669;50.186;27.062;2022-07-30T00:18:50;17.90;99.90
25839;DHT22;13669;50.186;27.062;2022-07-30T00:21:17;18.00;99.90
25839;DHT22;13669;50.186;27.062;2022-07-30T00:24:01;18.00;99.90
25839;DHT22;13669;50.186;27.062;2022-07-30T00:26:29;18.00;99.90
25839;DHT22;13669;50.186;27.062;2022-07-30T00:28:56;17.90;99.90
25839;DHT22;13669;50.186;27.062;2022-07-30T00:31:24;17.80;99.90
25839;DHT22;13669;50.186;27.062;2022-07-30T00:33:51;17.80;99.90
25839;DHT22;13669;50.186;27.062;2022-07-30T00:36:19;17.70;99.90
25839;DHT22;13669;50.186;27.062;2022-07-30T00:38:46;17.70;99.90
25839;DHT22;13669;50.186;27.062;2022-07-30T00:41:14;17.70;99.90
25839;DHT22;13669;50.186;27.062;2022-07-30T00:43:42;17.60;99.90
25839;DHT22;13669;50.186;27.062;2022-07-30T00:46:09;17.60;99.90
25839;DHT22;13669;50.186;27.062;2022-07-30T00:48:37;17.60;99.90
25839;DHT22;13669;50.186;27.062;2022-07-30T00:51:04;17.50;99.90
25839;DHT22;13669;50.186;27.062;2022-07-30T00:53:33;17.50;99.90
25839;DHT22;13669;50.186;27.062;2022-07-30T00:56:02;17.40;99.90
25839;DHT22;13669;50.186;27.062;2022-07-30T00:58:30;17.40;99.90
25839;DHT22;13669;50.186;27.062;2022-07-30T01:00:57;17.40;99.90
25839;DHT22;13669;50.186;27.062;2022-07-30T01:03:25;17.40;99.90
25839;DHT22;13669;50.186;27.062;2022-07-30T01:05:52;17.50;99.90
25839;DHT22;13669;50.186;27.062;2022-07-30T01:08:20;17.50;99.90
25839;DHT22;13669;50.186;27.062;2022-07-30T01:10:47;17.50;99.90
25839;DHT22;13669;50.186;27.062;2022-07-30T01:13:15;17.40;99.90
25839;DHT22;13669;50.186;27.062;2022-07-30T01:15:42;17.40;99.90
25839;DHT22;13669;50.186;27.062;2022-07-30T01:18:11;17.40;99.90
25839;DHT22;13669;50.186;27.062;2022-07-30T01:20:47;17.40;99.90
25839;DHT22;13669;50.186;27.062;2022-07-30T01:23:32;17.50;99.90
25839;DHT22;13669;50.186;27.062;2022-07-30T01:26:08;17.40;99.90
25839;DHT22;13669;50.186;27.062;2022-07-30T01:28:38;17.40;99.90
25839;DHT22;13669;50.186;27.062;2022-07-30T01:31:07;17.40;99.90
25839;DHT22;13669;50.186;27.062;2022-07-30T01:33:38;17.40;99.90
25839;DHT22;13669;50.186;27.062;2022-07-30T01:36:12;17.40;99.90
25839;DHT22;13669;50.186;27.062;2022-07-30T01:38:43;17.30;99.90
25839;DHT22;13669;50.186;27.062;2022-07-30T01:41:12;17.40;99.90
25839;DHT22;13669;50.186;27.062;2022-07-30T01:43:40;17.40;99.90
25839;DHT22;13669;50.186;27.062;2022-07-30T01:46:09;17.20;99.90
25839;DHT22;13669;50.186;27.062;2022-07-30T01:48:40;17.20;99.90
25839;DHT22;13669;50.186;27.062;2022-07-30T01:51:10;17.20;99.90
25839;DHT22;13669;50.186;27.062;2022-07-30T01:53:39;17.20;99.90
25839;DHT22;13669;50.186;27.062;2022-07-30T01:56:10;17.20;99.90
25839;DHT22;13669;50.186;27.062;2022-07-30T01:58:44;17.10;99.90
25839;DHT22;13669;50.186;27.062;2022-07-30T02:01:13;17.10;99.90
25839;DHT22;13669;50.186;27.062;2022-07-30T02:03:40;17.10;99.90
25839;DHT22;13669;50.186;27.062;2022-07-30T02:06:33;17.10;99.90
25839;DHT22;13669;50.186;27.062;2022-07-30T02:09:03;17.10;99.90
25839;DHT22;13669;50.186;27.062;2022-07-30T02:11:42;17.10;99.90
25839;DHT22;13669;50.186;27.062;2022-07-30T02:14:45;17.10;99.90
25839;DHT22;13669;50.186;27.062;2022-07-30T02:17:18;17.00;99.90
25839;DHT22;13669;50.186;27.062;2022-07-30T02:19:56;17.00;99.90
25839;DHT22;13669;50.186;27.062;2022-07-30T02:22:28;17.10;99.90
25839;DHT22;13669;50.186;27.062;2022-07-30T02:24:59;17.20;99.90
25839;DHT22;13669;50.186;27.062;2022-07-30T02:27:31;17.20;99.90
25839;DHT22;13669;50.186;27.062;2022-07-30T02:30:00;17.20;99.90
25839;DHT22;13669;50.186;27.062;2022-07-30T02:32:33;17.20;99.90
25839;DHT22;13669;50.186;27.062;2022-07-30T02:35:10;17.10;99.90
25839;DHT22;13669;50.186;27.062;2022-07-30T02:37:40;17.20;99.90
25839;DHT22;13669;50.186;27.062;2022-07-30T02:40:13;17.20;99.90
25839;DHT22;13669;50.186;27.062;2022-07-30T02:42:45;17.20;99.90
25839;DHT22;13669;50.186;27.062;2022-07-30T02:45:15;17.20;99.90
25839;DHT22;13669;50.186;27.062;2022-07-30T02:47:50;17.20;99.90
25839;DHT22;13669;50.186;27.062;2022-07-30T02:50:19;17.20;99.90
25839;DHT22;13669;50.186;27.062;2022-07-30T02:52:48;17.10;99.90
25839;DHT22;13669;50.186;27.062;2022-07-30T02:55:17;17.10;99.90
25839;DHT22;13669;50.186;27.062;2022-07-30T02:57:45;17.10;99.90
25839;DHT22;13669;50.186;27.062;2022-07-30T03:00:14;17.00;99.90
25839;DHT22;13669;50.186;27.062;2022-07-30T03:02:42;16.90;99.90
25839;DHT22;13669;50.186;27.062;2022-07-30T03:05:12;16.90;99.90
25839;DHT22;13669;50.186;27.062;2022-07-30T03:07:41;16.80;99.90
25839;DHT22;13669;50.186;27.062;2022-07-30T03:10:10;16.90;99.90
25839;DHT22;13669;50.186;27.062;2022-07-30T03:12:40;16.90;99.90
25839;DHT22;13669;50.186;27.062;2022-07-30T03:15:08;16.90;99.90
25839;DHT22;13669;50.186;27.062;2022-07-30T03:17:39;16.90;99.90
25839;DHT22;13669;50.186;27.062;2022-07-30T03:20:14;17.00;99.90
25839;DHT22;13669;50.186;27.062;2022-07-30T03:22:46;17.10;99.90
25839;DHT22;13669;50.186;27.062;2022-07-30T03:25:27;17.20;99.90
25839;DHT22;13669;50.186;27.062;2022-07-30T03:27:56;17.30;99.90
25839;DHT22;13669;50.186;27.062;2022-07-30T03:30:26;17.30;99.90
25839;DHT22;13669;50.186;27.062;2022-07-30T03:32:55;17.40;99.90
25839;DHT22;13669;50.186;27.062;2022-07-30T03:35:23;17.50;99.90
25839;DHT22;13669;50.186;27.062;2022-07-30T03:37:53;17.50;99.90
25839;DHT22;13669;50.186;27.062;2022-07-30T03:40:22;17.60;99.90
25839;DHT22;13669;50.186;27.062;2022-07-30T03:42:50;17.60;99.90
25839;DHT22;13669;50.186;27.062;2022-07-30T03:45:19;17.60;99.90
25839;DHT22;13669;50.186;27.062;2022-07-30T03:47:47;17.80;99.90
25839;DHT22;13669;50.186;27.062;2022-07-30T03:50:14;17.80;99.90
25839;DHT22;13669;50.186;27.062;2022-07-30T03:52:42;17.90;99.90
25839;DHT22;13669;50.186;27.062;2022-07-30T03:55:11;17.90;99.90
25839;DHT22;13669;50.186;27.062;2022-07-30T03:57:38;17.90;99.90
25839;DHT22;13669;50.186;27.062;2022-07-30T04:00:12;18.10;99.90
25839;DHT22;13669;50.186;27.062;2022-07-30T04:02:44;18.20;99.90
25839;DHT22;13669;50.186;27.062;2022-07-30T04:05:13;18.20;93.60
25839;DHT22;13669;50.186;27.062;2022-07-30T04:07:41;18.30;96.80
25839;DHT22;13669;50.186;27.062;2022-07-30T04:10:12;18.30;95.20
25839;DHT22;13669;50.186;27.062;2022-07-30T04:12:39;18.40;98.70
25839;DHT22;13669;50.186;27.062;2022-07-30T04:15:08;18.50;89.30
25839;DHT22;13669;50.186;27.062;2022-07-30T04:18:00;18.50;92.00
25839;DHT22;13669;50.186;27.062;2022-07-30T04:20:33;18.60;86.30
25839;DHT22;13669;50.186;27.062;2022-07-30T04:23:03;18.70;91.40
25839;DHT22;13669;50.186;27.062;2022-07-30T04:25:32;18.70;87.90
25839;DHT22;13669;50.186;27.062;2022-07-30T04:28:00;18.80;81.60
25839;DHT22;13669;50.186;27.062;2022-07-30T04:30:30;18.90;74.90
25839;DHT22;13669;50.186;27.062;2022-07-30T04:33:03;19.00;69.30
25839;DHT22;13669;50.186;27.062;2022-07-30T04:35:32;18.90;64.80
25839;DHT22;13669;50.186;27.062;2022-07-30T04:38:19;18.90;81.10
25839;DHT22;13669;50.186;27.062;2022-07-30T04:40:47;19.00;79.10
25839;DHT22;13669;50.186;27.062;2022-07-30T04:43:15;19.10;76.30
25839;DHT22;13669;50.186;27.062;2022-07-30T04:45:42;19.20;66.00
25839;DHT22;13669;50.186;27.062;2022-07-30T04:48:10;19.30;61.10
25839;DHT22;13669;50.186;27.062;2022-07-30T04:50:41;19.40;49.60
25839;DHT22;13669;50.186;27.062;2022-07-30T04:53:09;19.50;39.20
25839;DHT22;13669;50.186;27.062;2022-07-30T04:55:41;19.60;25.10
25839;DHT22;13669;50.186;27.062;2022-07-30T04:58:09;19.70;1.00
25839;DHT22;13669;50.186;27.062;2022-07-30T05:00:39;19.80;1.00
25839;DHT22;13669;50.186;27.062;2022-07-30T05:03:11;19.90;1.00
25839;DHT22;13669;50.186;27.062;2022-07-30T05:05:39;20.00;1.00
25839;DHT22;13669;50.186;27.062;2022-07-30T05:08:07;20.00;1.00
25839;DHT22;13669;50.186;27.062;2022-07-30T05:10:37;20.00;1.00
25839;DHT22;13669;50.186;27.062;2022-07-30T05:13:10;20.10;1.00
25839;DHT22;13669;50.186;27.062;2022-07-30T05:15:39;20.10;1.00
25839;DHT22;13669;50.186;27.062;2022-07-30T05:18:07;20.20;1.00
25839;DHT22;13669;50.186;27.062;2022-07-30T05:20:35;20.20;1.00
25839;DHT22;13669;50.186;27.062;2022-07-30T05:23:03;20.30;1.00
25839;DHT22;13669;50.186;27.062;2022-07-30T05:25:31;20.40;99.90
25839;DHT22;13669;50.186;27.062;2022-07-30T05:27:58;20.40;99.90
25839;DHT22;13669;50.186;27.062;2022-07-30T05:30:26;20.50;99.90
25839;DHT22;13669;50.186;27.062;2022-07-30T05:32:54;20.60;99.90
25839;DHT22;13669;50.186;27.062;2022-07-30T05:35:22;20.60;84.00
25839;DHT22;13669;50.186;27.062;2022-07-30T05:37:49;20.70;1.00
25839;DHT22;13669;50.186;27.062;2022-07-30T05:40:17;20.80;99.90
25839;DHT22;13669;50.186;27.062;2022-07-30T05:42:44;21.00;1.00
25839;DHT22;13669;50.186;27.062;2022-07-30T05:45:12;21.10;99.90
25839;DHT22;13669;50.186;27.062;2022-07-30T05:47:39;21.20;99.90
25839;DHT22;13669;50.186;27.062;2022-07-30T05:50:07;21.30;99.90
25839;DHT22;13669;50.186;27.062;2022-07-30T05:52:35;21.40;99.90
25839;DHT22;13669;50.186;27.062;2022-07-30T05:55:03;21.70;1.00
25839;DHT22;13669;50.186;27.062;2022-07-30T05:57:30;21.90;99.90
25839;DHT22;13669;50.186;27.062;2022-07-30T06:00:01;22.20;99.90
25839;DHT22;13669;50.186;27.062;2022-07-30T06:02:29;22.50;33.20
25839;DHT22;13669;50.186;27.062;2022-07-30T06:04:56;22.60;1.00
25839;DHT22;13669;50.186;27.062;2022-07-30T06:07:24;22.60;99.90
25839;DHT22;13669;50.186;27.062;2022-07-30T06:09:52;22.70;99.90
25839;DHT22;13669;50.186;27.062;2022-07-30T06:12:19;22.80;38.60
25839;DHT22;13669;50.186;27.062;2022-07-30T06:14:47;22.90;17.30
25839;DHT22;13669;50.186;27.062;2022-07-30T06:17:14;23.00;1.00
25839;DHT22;13669;50.186;27.062;2022-07-30T06:19:42;23.10;1.00
25839;DHT22;13669;50.186;27.062;2022-07-30T06:22:09;23.20;99.90
25839;DHT22;13669;50.186;27.062;2022-07-30T06:24:37;23.30;99.90
25839;DHT22;13669;50.186;27.062;2022-07-30T06:27:04;23.20;99.90
25839;DHT22;13669;50.186;27.062;2022-07-30T06:29:32;23.30;99.90
25839;DHT22;13669;50.186;27.062;2022-07-30T06:31:59;23.30;99.90
25839;DHT22;13669;50.186;27.062;2022-07-30T06:34:27;23.30;99.90
25839;DHT22;13669;50.186;27.062;2022-07-30T06:36:54;23.20;91.00
25839;DHT22;13669;50.186;27.062;2022-07-30T06:39:22;23.20;45.90
25839;DHT22;13669;50.186;27.062;2022-07-30T06:42:09;23.10;1.00
25839;DHT22;13669;50.186;27.062;2022-07-30T06:44:36;23.10;1.00
25839;DHT22;13669;50.186;27.062;2022-07-30T06:47:04;23.10;1.00
25839;DHT22;13669;50.186;27.062;2022-07-30T06:49:35;23.30;1.00
25839;DHT22;13669;50.186;27.062;2022-07-30T06:52:03;23.50;1.00
25839;DHT22;13669;50.186;27.062;2022-07-30T06:54:30;23.60;1.00
25839;DHT22;13669;50.186;27.062;2022-07-30T06:56:58;23.80;1.00
25839;DHT22;13669;50.186;27.062;2022-07-30T06:59:26;24.00;99.90
25839;DHT22;13669;50.186;27.062;2022-07-30T07:01:54;24.10;99.90
25839;DHT22;13669;50.186;27.062;2022-07-30T07:04:21;24.20;99.90
25839;DHT22;13669;50.186;27.062;2022-07-30T07:06:49;24.20;99.90
25839;DHT22;13669;50.186;27.062;2022-07-30T07:09:17;24.00;99.90
25839;DHT22;13669;50.186;27.062;2022-07-30T07:11:44;24.00;99.90
25839;DHT22;13669;50.186;27.062;2022-07-30T07:14:11;24.10;99.90
25839;DHT22;13669;50.186;27.062;2022-07-30T07:16:39;24.10;99.90
25839;DHT22;13669;50.186;27.062;2022-07-30T07:19:06;24.20;99.90
25839;DHT22;13669;50.186;27.062;2022-07-30T07:21:35;24.10;99.90
25839;DHT22;13669;50.186;27.062;2022-07-30T07:24:03;24.20;99.90
25839;DHT22;13669;50.186;27.062;2022-07-30T07:26:30;24.30;99.90
25839;DHT22;13669;50.186;27.062;2022-07-30T07:28:58;24.40;99.90
25839;DHT22;13669;50.186;27.062;2022-07-30T07:31:31;24.40;99.90
25839;DHT22;13669;50.186;27.062;2022-07-30T07:34:18;24.60;99.90
25839;DHT22;13669;50.186;27.062;2022-07-30T07:36:46;24.70;99.90
25839;DHT22;13669;50.186;27.062;2022-07-30T07:39:13;24.80;99.90
25839;DHT22;13669;50.186;27.062;2022-07-30T07:41:41;24.90;99.90
25839;DHT22;13669;50.186;27.062;2022-07-30T07:44:15;25.00;99.90
25839;DHT22;13669;50.186;27.062;2022-07-30T07:46:42;25.10;99.90
25839;DHT22;13669;50.186;27.062;2022-07-30T07:49:10;25.20;97.10
25839;DHT22;13669;50.186;27.062;2022-07-30T07:51:38;25.30;56.40
25839;DHT22;13669;50.186;27.062;2022-07-30T07:54:15;25.40;69.70
25839;DHT22;13669;50.186;27.062;2022-07-30T07:56:50;25.50;44.50
25839;DHT22;13669;50.186;27.062;2022-07-30T07:59:18;25.50;1.00
25839;DHT22;13669;50.186;27.062;2022-07-30T08:01:49;25.50;1.00
25839;DHT22;13669;50.186;27.062;2022-07-30T08:04:17;25.50;99.90
25839;DHT22;13669;50.186;27.062;2022-07-30T08:06:45;25.50;99.90
25839;DHT22;13669;50.186;27.062;2022-07-30T08:09:12;25.50;99.90
25839;DHT22;13669;50.186;27.062;2022-07-30T08:11:39;25.60;99.90
25839;DHT22;13669;50.186;27.062;2022-07-30T08:14:07;25.60;99.90
25839;DHT22;13669;50.186;27.062;2022-07-30T08:16:35;25.50;99.90
25839;DHT22;13669;50.186;27.062;2022-07-30T08:19:02;25.50;99.90
25839;DHT22;13669;50.186;27.062;2022-07-30T08:21:30;25.70;99.90
25839;DHT22;13669;50.186;27.062;2022-07-30T08:23:57;25.80;99.90
25839;DHT22;13669;50.186;27.062;2022-07-30T08:26:25;26.00;99.90
25839;DHT22;13669;50.186;27.062;2022-07-30T08:28:52;26.30;99.90
25839;DHT22;13669;50.186;27.062;2022-07-30T08:31:20;26.50;99.90
25839;DHT22;13669;50.186;27.062;2022-07-30T08:33:48;26.50;99.90
25839;DHT22;13669;50.186;27.062;2022-07-30T08:36:15;26.80;59.30
25839;DHT22;13669;50.186;27.062;2022-07-30T08:38:43;26.90;1.00
25839;DHT22;13669;50.186;27.062;2022-07-30T08:41:11;26.70;1.00
25839;DHT22;13669;50.186;27.062;2022-07-30T08:43:39;26.50;1.00
25839;DHT22;13669;50.186;27.062;2022-07-30T08:46:08;26.40;1.00
25839;DHT22;13669;50.186;27.062;2022-07-30T08:48:41;26.40;1.00
25839;DHT22;13669;50.186;27.062;2022-07-30T08:51:08;26.70;1.00
25839;DHT22;13669;50.186;27.062;2022-07-30T08:53:36;26.90;1.00
25839;DHT22;13669;50.186;27.062;2022-07-30T08:56:06;26.70;1.00
25839;DHT22;13669;50.186;27.062;2022-07-30T08:58:34;26.70;1.00
25839;DHT22;13669;50.186;27.062;2022-07-30T09:01:02;26.90;1.00
25839;DHT22;13669;50.186;27.062;2022-07-30T09:03:30;27.20;1.00
25839;DHT22;13669;50.186;27.062;2022-07-30T09:06:03;27.40;1.00
25839;DHT22;13669;50.186;27.062;2022-07-30T09:08:31;27.50;1.00
25839;DHT22;13669;50.186;27.062;2022-07-30T09:10:59;27.20;1.00
25839;DHT22;13669;50.186;27.062;2022-07-30T09:13:31;27.00;1.00
25839;DHT22;13669;50.186;27.062;2022-07-30T09:16:01;27.10;1.00
25839;DHT22;13669;50.186;27.062;2022-07-30T09:18:39;27.40;1.00
25839;DHT22;13669;50.186;27.062;2022-07-30T09:21:21;27.60;1.00
25839;DHT22;13669;50.186;27.062;2022-07-30T09:24:03;27.80;1.00
25839;DHT22;13669;50.186;27.062;2022-07-30T09:26:32;27.90;1.00
25839;DHT22;13669;50.186;27.062;2022-07-30T09:29:27;27.90;1.00
25839;DHT22;13669;50.186;27.062;2022-07-30T09:32:01;27.90;1.00
25839;DHT22;13669;50.186;27.062;2022-07-30T09:34:35;27.70;1.00
25839;DHT22;13669;50.186;27.062;2022-07-30T09:39:41;28.00;1.00
25839;DHT22;13669;50.186;27.062;2022-07-30T09:42:26;28.30;1.00
25839;DHT22;13669;50.186;27.062;2022-07-30T09:45:13;28.60;1.00
25839;DHT22;13669;50.186;27.062;2022-07-30T09:47:43;28.50;99.90
25839;DHT22;13669;50.186;27.062;2022-07-30T09:50:15;28.70;99.90
25839;DHT22;13669;50.186;27.062;2022-07-30T09:53:06;28.90;99.90
25839;DHT22;13669;50.186;27.062;2022-07-30T09:55:35;29.10;99.90
25839;DHT22;13669;50.186;27.062;2022-07-30T09:58:09;29.10;99.90
25839;DHT22;13669;50.186;27.062;2022-07-30T10:00:43;29.10;99.90
25839;DHT22;13669;50.186;27.062;2022-07-30T10:03:22;28.90;99.90
25839;DHT22;13669;50.186;27.062;2022-07-30T10:06:00;29.00;99.90
25839;DHT22;13669;50.186;27.062;2022-07-30T10:08:44;29.00;99.90
25839;DHT22;13669;50.186;27.062;2022-07-30T10:11:18;28.80;99.90
25839;DHT22;13669;50.186;27.062;2022-07-30T10:13:53;28.80;99.90
25839;DHT22;13669;50.186;27.062;2022-07-30T10:16:24;28.40;99.90
25839;DHT22;13669;50.186;27.062;2022-07-30T10:18:52;28.40;99.90
25839;DHT22;13669;50.186;27.062;2022-07-30T10:21:24;28.50;99.90
25839;DHT22;13669;50.186;27.062;2022-07-30T10:23:52;28.60;99.90
25839;DHT22;13669;50.186;27.062;2022-07-30T10:26:21;28.80;99.90
25839;DHT22;13669;50.186;27.062;2022-07-30T10:28:50;28.80;99.90
25839;DHT22;13669;50.186;27.062;2022-07-30T10:31:18;28.80;99.90
25839;DHT22;13669;50.186;27.062;2022-07-30T10:34:05;28.90;99.90
25839;DHT22;13669;50.186;27.062;2022-07-30T10:36:34;29.00;99.90
25839;DHT22;13669;50.186;27.062;2022-07-30T10:39:02;29.20;99.90
25839;DHT22;13669;50.186;27.062;2022-07-30T10:41:46;29.40;99.90
25839;DHT22;13669;50.186;27.062;2022-07-30T10:47:13;29.60;99.90
25839;DHT22;13669;50.186;27.062;2022-07-30T10:50:02;29.40;99.90
25839;DHT22;13669;50.186;27.062;2022-07-30T10:52:47;29.30;99.90
25839;DHT22;13669;50.186;27.062;2022-07-30T10:55:38;29.30;99.90
25839;DHT22;13669;50.186;27.062;2022-07-30T10:58:12;29.30;99.90
25839;DHT22;13669;50.186;27.062;2022-07-30T11:03:20;29.80;99.90
25839;DHT22;13669;50.186;27.062;2022-07-30T11:08:50;30.40;99.90
25839;DHT22;13669;50.186;27.062;2022-07-30T11:14:13;30.70;99.90
25839;DHT22;13669;50.186;27.062;2022-07-30T11:16:57;30.20;99.90
25839;DHT22;13669;50.186;27.062;2022-07-30T11:19:25;30.00;99.90
25839;DHT22;13669;50.186;27.062;2022-07-30T11:22:27;29.60;99.90
25839;DHT22;13669;50.186;27.062;2022-07-30T11:24:59;29.60;99.90
25839;DHT22;13669;50.186;27.062;2022-07-30T11:27:39;29.50;99.90
25839;DHT22;13669;50.186;27.062;2022-07-30T11:32:46;29.90;99.90
25839;DHT22;13669;50.186;27.062;2022-07-30T11:35:31;30.50;99.90
25839;DHT22;13669;50.186;27.062;2022-07-30T11:38:14;31.70;99.90
25839;DHT22;13669;50.186;27.062;2022-07-30T11:43:33;31.60;99.90
25839;DHT22;13669;50.186;27.062;2022-07-30T11:46:18;31.30;99.90
25839;DHT22;13669;50.186;27.062;2022-07-30T11:48:57;31.50;99.90
25839;DHT22;13669;50.186;27.062;2022-07-30T11:51:25;32.40;99.90
25839;DHT22;13669;50.186;27.062;2022-07-30T11:54:04;33.70;99.90
25839;DHT22;13669;50.186;27.062;2022-07-30T11:56:33;34.60;99.90
25839;DHT22;13669;50.186;27.062;2022-07-30T11:59:05;34.00;99.90
25839;DHT22;13669;50.186;27.062;2022-07-30T12:01:34;33.90;99.90
25839;DHT22;13669;50.186;27.062;2022-07-30T12:04:03;33.50;99.90
25839;DHT22;13669;50.186;27.062;2022-07-30T12:06:31;33.30;99.90
25839;DHT22;13669;50.186;27.062;2022-07-30T12:08:59;33.50;99.90
25839;DHT22;13669;50.186;27.062;2022-07-30T12:11:34;33.30;99.90
25839;DHT22;13669;50.186;27.062;2022-07-30T12:14:02;33.30;99.90
25839;DHT22;13669;50.186;27.062;2022-07-30T12:16:30;33.50;99.90
25839;DHT22;13669;50.186;27.062;2022-07-30T12:19:04;33.70;99.90
25839;DHT22;13669;50.186;27.062;2022-07-30T12:21:32;33.90;99.90
25839;DHT22;13669;50.186;27.062;2022-07-30T12:24:04;34.40;99.90
25839;DHT22;13669;50.186;27.062;2022-07-30T12:26:34;33.90;99.90
25839;DHT22;13669;50.186;27.062;2022-07-30T12:29:07;33.90;99.90
25839;DHT22;13669;50.186;27.062;2022-07-30T12:31:38;34.40;99.90
25839;DHT22;13669;50.186;27.062;2022-07-30T12:34:20;34.30;99.90
25839;DHT22;13669;50.186;27.062;2022-07-30T12:36:49;34.00;99.90
25839;DHT22;13669;50.186;27.062;2022-07-30T12:39:18;33.80;99.90
25839;DHT22;13669;50.186;27.062;2022-07-30T12:41:49;33.60;99.90
25839;DHT22;13669;50.186;27.062;2022-07-30T12:44:40;32.90;99.90
25839;DHT22;13669;50.186;27.062;2022-07-30T12:47:29;33.00;99.90
25839;DHT22;13669;50.186;27.062;2022-07-30T12:49:59;32.90;99.90
25839;DHT22;13669;50.186;27.062;2022-07-30T12:52:30;33.00;99.90
25839;DHT22;13669;50.186;27.062;2022-07-30T12:55:07;33.90;99.90
25839;DHT22;13669;50.186;27.062;2022-07-30T13:00:23;35.80;99.90
25839;DHT22;13669;50.186;27.062;2022-07-30T13:02:51;37.40;99.90
25839;DHT22;13669;50.186;27.062;2022-07-30T13:05:19;37.90;99.90
25839;DHT22;13669;50.186;27.062;2022-07-30T13:07:57;38.20;99.90
25839;DHT22;13669;50.186;27.062;2022-07-30T13:10:25;38.00;99.90
25839;DHT22;13669;50.186;27.062;2022-07-30T13:12:58;37.50;99.90
25839;DHT22;13669;50.186;27.062;2022-07-30T13:15:26;37.90;99.90
25839;DHT22;13669;50.186;27.062;2022-07-30T13:17:53;38.50;99.90
25839;DHT22;13669;50.186;27.062;2022-07-30T13:20:21;38.80;99.90
25839;DHT22;13669;50.186;27.062;2022-07-30T13:22:48;38.40;99.90
25839;DHT22;13669;50.186;27.062;2022-07-30T13:25:16;38.90;99.90
25839;DHT22;13669;50.186;27.062;2022-07-30T13:27:44;38.80;99.90
25839;DHT22;13669;50.186;27.062;2022-07-30T13:30:12;38.20;99.90
25839;DHT22;13669;50.186;27.062;2022-07-30T13:32:39;38.60;99.90
25839;DHT22;13669;50.186;27.062;2022-07-30T13:35:07;38.80;99.90
25839;DHT22;13669;50.186;27.062;2022-07-30T13:37:35;39.40;99.90
25839;DHT22;13669;50.186;27.062;2022-07-30T13:40:05;40.00;99.90
25839;DHT22;13669;50.186;27.062;2022-07-30T13:42:33;40.00;99.90
25839;DHT22;13669;50.186;27.062;2022-07-30T13:45:01;40.20;99.90
25839;DHT22;13669;50.186;27.062;2022-07-30T13:47:28;40.10;99.90
25839;DHT22;13669;50.186;27.062;2022-07-30T13:49:55;38.80;99.90
25839;DHT22;13669;50.186;27.062;2022-07-30T13:52:23;37.50;99.90
25839;DHT22;13669;50.186;27.062;2022-07-30T13:54:50;37.60;99.90
25839;DHT22;13669;50.186;27.062;2022-07-30T13:57:19;37.50;99.90
25839;DHT22;13669;50.186;27.062;2022-07-30T13:59:47;37.20;99.90
25839;DHT22;13669;50.186;27.062;2022-07-30T14:02:14;37.30;99.90
25839;DHT22;13669;50.186;27.062;2022-07-30T14:04:42;37.00;99.90
25839;DHT22;13669;50.186;27.062;2022-07-30T14:07:09;37.50;99.90
25839;DHT22;13669;50.186;27.062;2022-07-30T14:09:37;38.20;99.90
25839;DHT22;13669;50.186;27.062;2022-07-30T14:12:13;39.00;99.90
25839;DHT22;13669;50.186;27.062;2022-07-30T14:14:40;39.30;99.90
25839;DHT22;13669;50.186;27.062;2022-07-30T14:17:08;38.90;99.90
25839;DHT22;13669;50.186;27.062;2022-07-30T14:19:35;39.00;99.90
25839;DHT22;13669;50.186;27.062;2022-07-30T14:22:03;39.30;99.90
25839;DHT22;13669;50.186;27.062;2022-07-30T14:24:30;39.40;99.90
25839;DHT22;13669;50.186;27.062;2022-07-30T14:26:58;39.70;99.90
25839;DHT22;13669;50.186;27.062;2022-07-30T14:29:26;38.60;99.90
25839;DHT22;13669;50.186;27.062;2022-07-30T14:31:54;38.00;99.90
25839;DHT22;13669;50.186;27.062;2022-07-30T14:34:22;38.30;99.90
25839;DHT22;13669;50.186;27.062;2022-07-30T14:36:49;37.80;99.90
25839;DHT22;13669;50.186;27.062;2022-07-30T14:39:17;36.70;99.90
25839;DHT22;13669;50.186;27.062;2022-07-30T14:41:44;35.90;99.90
25839;DHT22;13669;50.186;27.062;2022-07-30T14:44:12;35.10;99.90
25839;DHT22;13669;50.186;27.062;2022-07-30T14:46:42;34.90;99.90
25839;DHT22;13669;50.186;27.062;2022-07-30T14:49:21;35.80;99.90
25839;DHT22;13669;50.186;27.062;2022-07-30T14:51:50;36.00;99.90
25839;DHT22;13669;50.186;27.062;2022-07-30T14:54:18;35.20;99.90
25839;DHT22;13669;50.186;27.062;2022-07-30T14:56:45;34.90;99.90
25839;DHT22;13669;50.186;27.062;2022-07-30T14:59:13;35.30;99.90
25839;DHT22;13669;50.186;27.062;2022-07-30T15:01:41;36.00;99.90
25839;DHT22;13669;50.186;27.062;2022-07-30T15:04:10;36.00;99.90
25839;DHT22;13669;50.186;27.062;2022-07-30T15:06:38;35.60;99.90
25839;DHT22;13669;50.186;27.062;2022-07-30T15:09:08;35.00;99.90
25839;DHT22;13669;50.186;27.062;2022-07-30T15:11:36;34.30;99.90
25839;DHT22;13669;50.186;27.062;2022-07-30T15:14:23;33.80;99.90
25839;DHT22;13669;50.186;27.062;2022-07-30T15:16:54;34.20;99.90
25839;DHT22;13669;50.186;27.062;2022-07-30T15:19:29;34.40;99.90
25839;DHT22;13669;50.186;27.062;2022-07-30T15:21:58;35.00;99.90
25839;DHT22;13669;50.186;27.062;2022-07-30T15:24:29;34.90;99.90
25839;DHT22;13669;50.186;27.062;2022-07-30T15:26:57;34.70;99.90
25839;DHT22;13669;50.186;27.062;2022-07-30T15:29:25;34.50;99.90
25839;DHT22;13669;50.186;27.062;2022-07-30T15:31:56;34.10;99.90
25839;DHT22;13669;50.186;27.062;2022-07-30T15:34:26;33.10;99.90
25839;DHT22;13669;50.186;27.062;2022-07-30T15:36:54;32.50;99.90
25839;DHT22;13669;50.186;27.062;2022-07-30T15:39:21;32.20;99.90
25839;DHT22;13669;50.186;27.062;2022-07-30T15:41:49;31.80;99.90
25839;DHT22;13669;50.186;27.062;2022-07-30T15:44:19;32.10;99.90
25839;DHT22;13669;50.186;27.062;2022-07-30T15:46:47;31.90;99.90
25839;DHT22;13669;50.186;27.062;2022-07-30T15:49:14;31.80;99.90
25839;DHT22;13669;50.186;27.062;2022-07-30T15:51:42;31.60;99.90
25839;DHT22;13669;50.186;27.062;2022-07-30T15:54:15;31.30;99.90
25839;DHT22;13669;50.186;27.062;2022-07-30T15:56:53;30.90;99.90
25839;DHT22;13669;50.186;27.062;2022-07-30T15:59:28;30.60;99.90
25839;DHT22;13669;50.186;27.062;2022-07-30T16:01:55;30.30;99.90